sensor_id;sensor_type;location;lat;lon;timestamp;pressure;altitude;pressure_sealevel;temperature;humidity
23281;BME280;11809;56.390;-3.266;2022-11-15T00:01:08;99502.94;;;16.76;62.48
23281;BME280;11809;56.390;-3.266;2022-11-15T00:03:35;99502.94;;;16.76;62.47
23281;BME280;11809;56.390;-3.266;2022-11-15T00:06:03;99504.75;;;16.76;62.58
23281;BME280;11809;56.390;-3.266;2022-11-15T00:08:31;99489.09;;;16.73;62.53
23281;BME280;11809;56.390;-3.266;2022-11-15T00:11:00;99498.16;;;16.70;62.57
23281;BME280;11809;56.390;-3.266;2022-11-15T00:13:28;99496.59;;;16.68;62.57
23281;BME280;11809;56.390;-3.266;2022-11-15T00:15:57;99505.50;;;16.67;62.65
23281;BME280;11809;56.390;-3.266;2022-11-15T00:18:25;99510.94;;;16.65;62.70
23281;BME280;11809;56.390;-3.266;2022-11-15T00:20:52;99499.50;;;16.65;62.74
23281;BME280;11809;56.390;-3.266;2022-11-15T00:23:19;99494.44;;;16.62;62.74
23281;BME280;11809;56.390;-3.266;2022-11-15T00:25:46;99493.59;;;16.61;62.66
23281;BME280;11809;56.390;-3.266;2022-11-15T00:28:13;99492.75;;;16.61;62.78
23281;BME280;11809;56.390;-3.266;2022-11-15T00:30:40;99492.19;;;16.57;62.79
23281;BME280;11809;56.390;-3.266;2022-11-15T00:33:08;99484.22;;;16.57;62.83
23281;BME280;11809;56.390;-3.266;2022-11-15T00:35:35;99482.53;;;16.56;62.83
23281;BME280;11809;56.390;-3.266;2022-11-15T00:38:02;99479.03;;;16.56;63.00
23281;BME280;11809;56.390;-3.266;2022-11-15T00:40:29;99473.97;;;16.53;62.89
23281;BME280;11809;56.390;-3.266;2022-11-15T00:42:56;99468.78;;;16.51;62.88
23281;BME280;11809;56.390;-3.266;2022-11-15T00:45:24;99457.31;;;16.51;63.01
23281;BME280;11809;56.390;-3.266;2022-11-15T00:47:51;99455.31;;;16.43;63.09
23281;BME280;11809;56.390;-3.266;2022-11-15T00:50:19;99455.75;;;16.48;63.12
23281;BME280;11809;56.390;-3.266;2022-11-15T00:52:46;99448.78;;;16.47;63.15
23281;BME280;11809;56.390;-3.266;2022-11-15T00:55:14;99437.34;;;16.47;63.10
23281;BME280;11809;56.390;-3.266;2022-11-15T00:57:41;99444.59;;;16.45;63.09
23281;BME280;11809;56.390;-3.266;2022-11-15T01:00:09;99434.81;;;16.45;63.38
23281;BME280;11809;56.390;-3.266;2022-11-15T01:02:36;99434.94;;;16.44;63.13
23281;BME280;11809;56.390;-3.266;2022-11-15T01:05:03;99427.94;;;16.43;63.24
23281;BME280;11809;56.390;-3.266;2022-11-15T01:07:30;99428.94;;;16.42;63.22
23281;BME280;11809;56.390;-3.266;2022-11-15T01:09:57;99416.63;;;16.41;63.46
23281;BME280;11809;56.390;-3.266;2022-11-15T01:12:24;99406.16;;;16.39;63.33
23281;BME280;11809;56.390;-3.266;2022-11-15T01:14:51;99400.88;;;16.39;63.42
23281;BME280;11809;56.390;-3.266;2022-11-15T01:17:19;99403.63;;;16.37;63.30
23281;BME280;11809;56.390;-3.266;2022-11-15T01:19:46;99401.13;;;16.36;63.44
23281;BME280;11809;56.390;-3.266;2022-11-15T01:22:13;99401.22;;;16.34;63.44
23281;BME280;11809;56.390;-3.266;2022-11-15T01:24:39;99395.91;;;16.34;63.48
23281;BME280;11809;56.390;-3.266;2022-11-15T01:27:06;99386.31;;;16.33;63.53
23281;BME280;11809;56.390;-3.266;2022-11-15T01:29:33;99388.97;;;16.33;63.68
23281;BME280;11809;56.390;-3.266;2022-11-15T01:32:00;99396.19;;;16.31;63.65
23281;BME280;11809;56.390;-3.266;2022-11-15T01:34:27;99391.72;;;16.32;63.54
23281;BME280;11809;56.390;-3.266;2022-11-15T01:36:54;99389.22;;;16.30;63.59
23281;BME280;11809;56.390;-3.266;2022-11-15T01:39:21;99394.63;;;16.29;63.70
23281;BME280;11809;56.390;-3.266;2022-11-15T01:41:48;99387.50;;;16.29;63.64
23281;BME280;11809;56.390;-3.266;2022-11-15T01:47:00;99370.44;;;16.22;63.58
23281;BME280;11809;56.390;-3.266;2022-11-15T01:49:30;99371.88;;;16.26;63.87
23281;BME280;11809;56.390;-3.266;2022-11-15T01:51:59;99369.59;;;16.22;63.87
23281;BME280;11809;56.390;-3.266;2022-11-15T01:54:27;99371.16;;;16.24;63.65
23281;BME280;11809;56.390;-3.266;2022-11-15T01:57:03;99367.66;;;16.24;63.74
23281;BME280;11809;56.390;-3.266;2022-11-15T01:59:31;99369.47;;;16.23;63.77
23281;BME280;11809;56.390;-3.266;2022-11-15T02:01:58;99369.47;;;16.23;63.94
23281;BME280;11809;56.390;-3.266;2022-11-15T02:04:28;99362.34;;;16.24;63.94
23281;BME280;11809;56.390;-3.266;2022-11-15T02:06:55;99358.84;;;16.23;63.94
23281;BME280;11809;56.390;-3.266;2022-11-15T02:09:23;99352.75;;;16.23;64.08
23281;BME280;11809;56.390;-3.266;2022-11-15T02:11:50;99350.09;;;16.23;64.18
23281;BME280;11809;56.390;-3.266;2022-11-15T02:14:21;99350.09;;;16.23;64.07
23281;BME280;11809;56.390;-3.266;2022-11-15T02:32:51;99319.63;;;16.17;64.08
23281;BME280;11809;56.390;-3.266;2022-11-15T02:38:16;99328.53;;;16.16;64.10
23281;BME280;11809;56.390;-3.266;2022-11-15T02:49:36;99317.34;;;16.13;64.28
23281;BME280;11809;56.390;-3.266;2022-11-15T02:52:04;99318.19;;;16.13;64.26
23281;BME280;11809;56.390;-3.266;2022-11-15T02:54:32;99313.88;;;16.12;64.26
23281;BME280;11809;56.390;-3.266;2022-11-15T02:57:12;99307.59;;;16.13;64.25
23281;BME280;11809;56.390;-3.266;2022-11-15T03:04:58;99277.75;;;16.11;64.25
23281;BME280;11809;56.390;-3.266;2022-11-15T03:10:07;99284.97;;;16.09;64.30
23281;BME280;11809;56.390;-3.266;2022-11-15T03:12:46;99284.97;;;16.09;64.45
23281;BME280;11809;56.390;-3.266;2022-11-15T03:15:23;99280.53;;;16.10;64.45
23281;BME280;11809;56.390;-3.266;2022-11-15T03:18:02;99282.34;;;16.09;64.33
23281;BME280;11809;56.390;-3.266;2022-11-15T03:20:31;99277.03;;;16.09;64.48
23281;BME280;11809;56.390;-3.266;2022-11-15T03:23:09;99268.22;;;16.09;64.40
23281;BME280;11809;56.390;-3.266;2022-11-15T03:25:41;99258.47;;;16.09;64.43
23281;BME280;11809;56.390;-3.266;2022-11-15T03:28:13;99255.84;;;16.09;64.50
23281;BME280;11809;56.390;-3.266;2022-11-15T03:30:42;99251.50;;;16.08;64.54
23281;BME280;11809;56.390;-3.266;2022-11-15T03:33:10;99246.69;;;16.02;64.34
23281;BME280;11809;56.390;-3.266;2022-11-15T03:35:40;99241.88;;;16.07;64.58
23281;BME280;11809;56.390;-3.266;2022-11-15T03:38:24;99241.88;;;16.07;64.42
23281;BME280;11809;56.390;-3.266;2022-11-15T03:40:59;99231.28;;;16.07;64.33
23281;BME280;11809;56.390;-3.266;2022-11-15T03:43:57;99222.47;;;16.07;64.52
23281;BME280;11809;56.390;-3.266;2022-11-15T03:46:36;99212.72;;;16.07;64.67
23281;BME280;11809;56.390;-3.266;2022-11-15T03:49:22;99211.03;;;16.06;64.36
23281;BME280;11809;56.390;-3.266;2022-11-15T03:51:51;99203.09;;;16.06;64.37
23281;BME280;11809;56.390;-3.266;2022-11-15T03:54:18;99191.63;;;16.06;64.49
23281;BME280;11809;56.390;-3.266;2022-11-15T03:56:45;99196.81;;;16.07;64.52
23281;BME280;11809;56.390;-3.266;2022-11-15T03:59:12;99194.19;;;16.07;64.39
23281;BME280;11809;56.390;-3.266;2022-11-15T04:01:38;99192.47;;;16.06;64.47
23281;BME280;11809;56.390;-3.266;2022-11-15T04:04:05;99194.28;;;16.06;64.46
23281;BME280;11809;56.390;-3.266;2022-11-15T04:06:33;99190.78;;;16.05;64.42
23281;BME280;11809;56.390;-3.266;2022-11-15T04:09:00;99192.59;;;16.05;64.41
23281;BME280;11809;56.390;-3.266;2022-11-15T04:11:27;99192.59;;;16.05;64.35
23281;BME280;11809;56.390;-3.266;2022-11-15T04:13:54;99181.19;;;16.04;64.44
23281;BME280;11809;56.390;-3.266;2022-11-15T04:16:21;99184.53;;;16.06;64.48
23281;BME280;11809;56.390;-3.266;2022-11-15T04:18:48;99182.84;;;16.05;64.54
23281;BME280;11809;56.390;-3.266;2022-11-15T04:21:34;99173.22;;;16.04;64.36
23281;BME280;11809;56.390;-3.266;2022-11-15T04:24:20;99161.66;;;16.05;64.45
23281;BME280;11809;56.390;-3.266;2022-11-15T04:26:47;99141.69;;;16.01;64.28
23281;BME280;11809;56.390;-3.266;2022-11-15T04:29:14;99142.13;;;16.06;64.31
23281;BME280;11809;56.390;-3.266;2022-11-15T04:32:10;99135.16;;;16.05;64.41
23281;BME280;11809;56.390;-3.266;2022-11-15T04:34:36;99138.63;;;16.06;64.62
23281;BME280;11809;56.390;-3.266;2022-11-15T04:37:04;99135.16;;;16.05;64.40
23281;BME280;11809;56.390;-3.266;2022-11-15T04:39:41;99133.34;;;16.06;64.31
23281;BME280;11809;56.390;-3.266;2022-11-15T04:42:09;99137.78;;;16.05;64.57
23281;BME280;11809;56.390;-3.266;2022-11-15T04:44:36;99139.59;;;16.05;64.38
23281;BME280;11809;56.390;-3.266;2022-11-15T04:47:03;99144.09;;;16.04;64.34
23281;BME280;11809;56.390;-3.266;2022-11-15T04:49:31;99134.97;;;15.97;64.38
23281;BME280;11809;56.390;-3.266;2022-11-15T04:51:58;99147.69;;;16.03;64.41
23281;BME280;11809;56.390;-3.266;2022-11-15T04:54:24;99146.00;;;16.02;64.48
23281;BME280;11809;56.390;-3.266;2022-11-15T04:56:51;99153.94;;;16.02;64.59
23281;BME280;11809;56.390;-3.266;2022-11-15T04:59:18;99147.84;;;16.02;64.46
23281;BME280;11809;56.390;-3.266;2022-11-15T05:01:45;99148.66;;;16.02;64.45
23281;BME280;11809;56.390;-3.266;2022-11-15T05:04:12;99140.69;;;16.02;64.56
23281;BME280;11809;56.390;-3.266;2022-11-15T05:06:49;99136.25;;;16.03;64.48
23281;BME280;11809;56.390;-3.266;2022-11-15T05:09:19;99138.06;;;16.02;64.40
23281;BME280;11809;56.390;-3.266;2022-11-15T05:11:46;99138.91;;;16.03;64.58
23281;BME280;11809;56.390;-3.266;2022-11-15T05:14:14;99123.16;;;16.01;64.59
23281;BME280;11809;56.390;-3.266;2022-11-15T05:16:41;99117.41;;;15.96;64.44
23281;BME280;11809;56.390;-3.266;2022-11-15T05:19:08;99121.19;;;16.03;64.51
23281;BME280;11809;56.390;-3.266;2022-11-15T05:21:35;99114.22;;;16.02;64.52
23281;BME280;11809;56.390;-3.266;2022-11-15T05:24:02;99110.84;;;16.00;64.54
23281;BME280;11809;56.390;-3.266;2022-11-15T05:26:30;99116.16;;;16.00;64.57
23281;BME280;11809;56.390;-3.266;2022-11-15T05:28:58;99115.31;;;16.00;64.45
23281;BME280;11809;56.390;-3.266;2022-11-15T05:31:26;99103.91;;;15.99;64.49
23281;BME280;11809;56.390;-3.266;2022-11-15T05:33:55;99109.19;;;15.99;64.62
23281;BME280;11809;56.390;-3.266;2022-11-15T05:36:36;99104.84;;;15.98;64.61
23281;BME280;11809;56.390;-3.266;2022-11-15T05:39:05;99094.25;;;15.98;64.64
23281;BME280;11809;56.390;-3.266;2022-11-15T05:41:51;99082.69;;;15.99;64.56
23281;BME280;11809;56.390;-3.266;2022-11-15T05:44:21;99080.06;;;15.99;64.60
23281;BME280;11809;56.390;-3.266;2022-11-15T05:46:50;99073.91;;;15.99;64.63
23281;BME280;11809;56.390;-3.266;2022-11-15T05:49:21;99072.91;;;16.00;64.69
23281;BME280;11809;56.390;-3.266;2022-11-15T05:51:49;99059.56;;;16.01;64.52
23281;BME280;11809;56.390;-3.266;2022-11-15T05:54:17;99067.09;;;16.06;64.93
23281;BME280;11809;56.390;-3.266;2022-11-15T05:56:45;99051.78;;;16.09;64.76
23281;BME280;11809;56.390;-3.266;2022-11-15T05:59:13;99045.22;;;16.13;64.85
23281;BME280;11809;56.390;-3.266;2022-11-15T06:01:40;99043.41;;;16.14;64.65
23281;BME280;11809;56.390;-3.266;2022-11-15T06:04:07;99050.25;;;16.16;64.73
23281;BME280;11809;56.390;-3.266;2022-11-15T06:06:34;99047.59;;;16.16;64.82
23281;BME280;11809;56.390;-3.266;2022-11-15T06:09:01;99049.66;;;16.13;64.78
23281;BME280;11809;56.390;-3.266;2022-11-15T06:11:27;99037.25;;;16.13;64.80
23281;BME280;11809;56.390;-3.266;2022-11-15T06:13:56;99037.00;;;16.16;65.01
23281;BME280;11809;56.390;-3.266;2022-11-15T06:16:22;99027.09;;;16.18;65.20
23281;BME280;11809;56.390;-3.266;2022-11-15T06:18:49;99029.63;;;16.20;65.11
23281;BME280;11809;56.390;-3.266;2022-11-15T06:21:16;99018.88;;;16.21;65.16
23281;BME280;11809;56.390;-3.266;2022-11-15T06:23:43;99017.75;;;16.24;65.04
23281;BME280;11809;56.390;-3.266;2022-11-15T06:26:10;99031.72;;;16.26;65.17
23281;BME280;11809;56.390;-3.266;2022-11-15T06:28:37;99028.94;;;16.27;65.00
23281;BME280;11809;56.390;-3.266;2022-11-15T06:31:06;99027.97;;;16.28;64.99
23281;BME280;11809;56.390;-3.266;2022-11-15T06:33:34;99022.22;;;16.23;64.96
23281;BME280;11809;56.390;-3.266;2022-11-15T06:36:06;99025.00;;;16.31;65.00
23281;BME280;11809;56.390;-3.266;2022-11-15T06:38:39;99027.25;;;16.26;63.49
23281;BME280;11809;56.390;-3.266;2022-11-15T06:41:08;99020.28;;;16.25;63.79
23281;BME280;11809;56.390;-3.266;2022-11-15T06:43:36;99023.91;;;16.24;64.20
23281;BME280;11809;56.390;-3.266;2022-11-15T06:46:05;99031.31;;;16.30;64.33
23281;BME280;11809;56.390;-3.266;2022-11-15T06:48:33;99033.81;;;16.32;64.37
23281;BME280;11809;56.390;-3.266;2022-11-15T06:51:01;99037.31;;;16.32;64.40
23281;BME280;11809;56.390;-3.266;2022-11-15T06:53:29;99040.81;;;16.33;64.42
23281;BME280;11809;56.390;-3.266;2022-11-15T06:56:02;99040.66;;;16.34;64.35
23281;BME280;11809;56.390;-3.266;2022-11-15T06:58:29;99034.50;;;16.34;64.22
23281;BME280;11809;56.390;-3.266;2022-11-15T07:01:14;99043.19;;;16.36;64.04
23281;BME280;11809;56.390;-3.266;2022-11-15T07:03:42;99045.00;;;16.35;64.30
23281;BME280;11809;56.390;-3.266;2022-11-15T07:06:09;99044.56;;;16.30;64.18
23281;BME280;11809;56.390;-3.266;2022-11-15T07:08:37;99054.63;;;16.36;64.39
23281;BME280;11809;56.390;-3.266;2022-11-15T07:11:06;99040.38;;;16.37;64.54
23281;BME280;11809;56.390;-3.266;2022-11-15T07:13:35;99042.34;;;16.35;64.09
23281;BME280;11809;56.390;-3.266;2022-11-15T07:16:04;99030.06;;;16.34;64.06
23281;BME280;11809;56.390;-3.266;2022-11-15T07:18:39;99031.31;;;16.40;64.28
23281;BME280;11809;56.390;-3.266;2022-11-15T07:21:08;99027.56;;;16.43;64.46
23281;BME280;11809;56.390;-3.266;2022-11-15T07:23:37;99033.84;;;16.42;63.62
23281;BME280;11809;56.390;-3.266;2022-11-15T07:26:07;99029.91;;;16.26;61.71
23281;BME280;11809;56.390;-3.266;2022-11-15T07:28:35;99017.75;;;16.14;60.78
23281;BME280;11809;56.390;-3.266;2022-11-15T07:31:03;99004.34;;;16.16;61.73
23281;BME280;11809;56.390;-3.266;2022-11-15T07:33:31;98992.63;;;16.18;62.07
23281;BME280;11809;56.390;-3.266;2022-11-15T07:36:04;98987.91;;;16.22;62.53
23281;BME280;11809;56.390;-3.266;2022-11-15T07:38:32;98956.94;;;16.22;62.80
23281;BME280;11809;56.390;-3.266;2022-11-15T07:41:07;98965.59;;;16.24;63.22
23281;BME280;11809;56.390;-3.266;2022-11-15T07:43:34;98972.69;;;16.24;63.19
23281;BME280;11809;56.390;-3.266;2022-11-15T07:46:06;98960.97;;;16.26;63.64
23281;BME280;11809;56.390;-3.266;2022-11-15T07:48:37;98956.41;;;16.28;63.74
23281;BME280;11809;56.390;-3.266;2022-11-15T07:51:14;98970.34;;;16.30;63.82
23281;BME280;11809;56.390;-3.266;2022-11-15T07:53:42;98964.03;;;16.31;63.76
23281;BME280;11809;56.390;-3.266;2022-11-15T07:56:10;98964.78;;;16.33;63.89
23281;BME280;11809;56.390;-3.266;2022-11-15T07:58:38;98951.50;;;16.33;64.04
23281;BME280;11809;56.390;-3.266;2022-11-15T08:01:06;98946.91;;;16.35;63.98
23281;BME280;11809;56.390;-3.266;2022-11-15T08:03:34;98941.59;;;16.35;63.95
23281;BME280;11809;56.390;-3.266;2022-11-15T08:06:02;98937.97;;;16.36;63.91
23281;BME280;11809;56.390;-3.266;2022-11-15T08:08:29;98940.47;;;16.38;64.02
23281;BME280;11809;56.390;-3.266;2022-11-15T08:11:00;98941.31;;;16.38;64.09
23281;BME280;11809;56.390;-3.266;2022-11-15T08:13:27;98935.03;;;16.39;63.88
23281;BME280;11809;56.390;-3.266;2022-11-15T08:15:59;98929.88;;;16.38;63.95
23281;BME280;11809;56.390;-3.266;2022-11-15T08:18:26;98923.47;;;16.41;64.04
23281;BME280;11809;56.390;-3.266;2022-11-15T08:20:58;98913.81;;;16.39;64.00
23281;BME280;11809;56.390;-3.266;2022-11-15T08:23:26;98903.22;;;16.39;63.99
23281;BME280;11809;56.390;-3.266;2022-11-15T08:25:59;98913.69;;;16.41;64.00
23281;BME280;11809;56.390;-3.266;2022-11-15T08:28:26;98909.22;;;16.42;64.00
23281;BME280;11809;56.390;-3.266;2022-11-15T08:30:53;98909.22;;;16.42;63.82
23281;BME280;11809;56.390;-3.266;2022-11-15T08:33:20;98903.22;;;16.39;63.94
23281;BME280;11809;56.390;-3.266;2022-11-15T08:35:48;98905.88;;;16.39;63.73
23281;BME280;11809;56.390;-3.266;2022-11-15T08:38:15;98890.78;;;16.40;63.64
23281;BME280;11809;56.390;-3.266;2022-11-15T08:40:42;98891.78;;;16.39;63.44
23281;BME280;11809;56.390;-3.266;2022-11-15T08:43:09;98889.00;;;16.41;63.77
23281;BME280;11809;56.390;-3.266;2022-11-15T08:45:36;98889.16;;;16.39;63.59
23281;BME280;11809;56.390;-3.266;2022-11-15T08:48:06;98902.53;;;16.37;63.68
23281;BME280;11809;56.390;-3.266;2022-11-15T08:50:33;98889.16;;;16.39;63.71
23281;BME280;11809;56.390;-3.266;2022-11-15T08:53:07;98903.94;;;16.42;63.79
23281;BME280;11809;56.390;-3.266;2022-11-15T08:55:39;98901.13;;;16.43;63.79
23281;BME280;11809;56.390;-3.266;2022-11-15T08:58:06;98901.97;;;16.44;63.73
23281;BME280;11809;56.390;-3.266;2022-11-15T09:00:33;98886.06;;;16.44;63.58
23281;BME280;11809;56.390;-3.266;2022-11-15T09:03:03;98871.00;;;16.44;63.67
23281;BME280;11809;56.390;-3.266;2022-11-15T09:05:31;98869.19;;;16.45;63.50
23281;BME280;11809;56.390;-3.266;2022-11-15T09:07:58;98858.59;;;16.45;63.50
23281;BME280;11809;56.390;-3.266;2022-11-15T09:10:27;98847.13;;;16.44;63.64
23281;BME280;11809;56.390;-3.266;2022-11-15T09:12:57;98855.09;;;16.44;63.51
23281;BME280;11809;56.390;-3.266;2022-11-15T09:15:24;98850.63;;;16.45;63.43
23281;BME280;11809;56.390;-3.266;2022-11-15T09:17:52;98855.09;;;16.44;63.37
23281;BME280;11809;56.390;-3.266;2022-11-15T09:20:19;98850.63;;;16.45;63.58
23281;BME280;11809;56.390;-3.266;2022-11-15T09:22:46;98845.31;;;16.45;63.45
23281;BME280;11809;56.390;-3.266;2022-11-15T09:25:13;98839.19;;;16.44;63.55
23281;BME280;11809;56.390;-3.266;2022-11-15T09:27:40;98827.72;;;16.44;63.37
23281;BME280;11809;56.390;-3.266;2022-11-15T09:30:07;98821.75;;;16.42;63.43
23281;BME280;11809;56.390;-3.266;2022-11-15T09:32:35;98824.41;;;16.42;63.45
23281;BME280;11809;56.390;-3.266;2022-11-15T09:35:05;98823.56;;;16.41;63.58
23281;BME280;11809;56.390;-3.266;2022-11-15T09:37:33;98810.97;;;16.43;63.67
23281;BME280;11809;56.390;-3.266;2022-11-15T09:40:02;98801.50;;;16.41;63.62
23281;BME280;11809;56.390;-3.266;2022-11-15T09:50:58;98799.81;;;16.39;63.31
23281;BME280;11809;56.390;-3.266;2022-11-15T09:53:47;98788.97;;;16.33;63.32
23281;BME280;11809;56.390;-3.266;2022-11-15T09:56:38;98795.63;;;16.37;63.23
23281;BME280;11809;56.390;-3.266;2022-11-15T10:04:36;98773.50;;;16.28;63.19
23281;BME280;11809;56.390;-3.266;2022-11-15T10:13:06;98779.47;;;16.30;63.68
23281;BME280;11809;56.390;-3.266;2022-11-15T10:15:42;98756.47;;;16.21;63.40
23281;BME280;11809;56.390;-3.266;2022-11-15T10:18:18;98753.13;;;16.19;63.76
23281;BME280;11809;56.390;-3.266;2022-11-15T10:20:51;98757.16;;;16.23;63.89
23281;BME280;11809;56.390;-3.266;2022-11-15T10:23:21;98753.53;;;16.24;64.10
23281;BME280;11809;56.390;-3.266;2022-11-15T10:25:52;98752.56;;;16.25;64.22
23281;BME280;11809;56.390;-3.266;2022-11-15T10:28:25;98756.88;;;16.26;64.45
23281;BME280;11809;56.390;-3.266;2022-11-15T10:30:56;98734.00;;;16.25;64.78
23281;BME280;11809;56.390;-3.266;2022-11-15T10:39:10;98735.81;;;16.25;64.70
23281;BME280;11809;56.390;-3.266;2022-11-15T10:41:42;98734.00;;;16.25;64.90
23281;BME280;11809;56.390;-3.266;2022-11-15T10:44:27;98726.91;;;16.26;64.86
23281;BME280;11809;56.390;-3.266;2022-11-15T10:49:24;98713.41;;;16.10;64.01
23281;BME280;11809;56.390;-3.266;2022-11-15T10:52:20;98704.63;;;16.09;64.36
23281;BME280;11809;56.390;-3.266;2022-11-15T10:57:39;98686.91;;;16.10;64.56
23281;BME280;11809;56.390;-3.266;2022-11-15T11:00:27;98691.38;;;16.09;64.66
23281;BME280;11809;56.390;-3.266;2022-11-15T11:11:12;98674.06;;;16.05;64.78
23281;BME280;11809;56.390;-3.266;2022-11-15T11:13:39;98668.78;;;16.05;64.93
23281;BME280;11809;56.390;-3.266;2022-11-15T11:19:09;98664.47;;;16.04;65.04
23281;BME280;11809;56.390;-3.266;2022-11-15T11:30:17;98641.31;;;16.06;65.11
23281;BME280;11809;56.390;-3.266;2022-11-15T11:33:01;98628.75;;;16.08;65.34
23281;BME280;11809;56.390;-3.266;2022-11-15T11:35:59;98628.75;;;16.08;65.44
23281;BME280;11809;56.390;-3.266;2022-11-15T11:41:45;98611.59;;;16.12;65.32
23281;BME280;11809;56.390;-3.266;2022-11-15T11:50:12;98597.75;;;16.18;65.29
23281;BME280;11809;56.390;-3.266;2022-11-15T11:55:33;98591.03;;;16.24;65.32
23281;BME280;11809;56.390;-3.266;2022-11-15T11:58:44;98591.28;;;16.30;65.68
23281;BME280;11809;56.390;-3.266;2022-11-15T12:01:24;98586.22;;;16.37;65.75
23281;BME280;11809;56.390;-3.266;2022-11-15T12:06:36;98576.59;;;16.36;65.58
23281;BME280;11809;56.390;-3.266;2022-11-15T12:09:55;98558.88;;;16.36;65.43
23281;BME280;11809;56.390;-3.266;2022-11-15T12:17:23;98546.41;;;16.47;65.64
23281;BME280;11809;56.390;-3.266;2022-11-15T12:19:55;98541.78;;;16.49;65.62
23281;BME280;11809;56.390;-3.266;2022-11-15T12:27:40;98523.72;;;16.62;65.29
23281;BME280;11809;56.390;-3.266;2022-11-15T12:30:14;98525.09;;;16.66;65.10
23281;BME280;11809;56.390;-3.266;2022-11-15T12:32:54;98521.13;;;16.70;64.91
23281;BME280;11809;56.390;-3.266;2022-11-15T12:35:36;98515.53;;;16.73;64.75
23281;BME280;11809;56.390;-3.266;2022-11-15T12:38:04;98521.38;;;16.76;64.74
23281;BME280;11809;56.390;-3.266;2022-11-15T12:40:34;98507.66;;;16.81;64.59
23281;BME280;11809;56.390;-3.266;2022-11-15T12:45:38;98489.34;;;16.95;64.54
23281;BME280;11809;56.390;-3.266;2022-11-15T13:17:40;98426.91;;;17.61;62.58
23281;BME280;11809;56.390;-3.266;2022-11-15T13:20:30;98432.41;;;17.67;62.29
23281;BME280;11809;56.390;-3.266;2022-11-15T13:23:02;98427.59;;;17.71;62.18
23281;BME280;11809;56.390;-3.266;2022-11-15T13:33:17;98406.56;;;17.77;61.21
23281;BME280;11809;56.390;-3.266;2022-11-15T13:35:54;98405.41;;;17.80;61.43
23281;BME280;11809;56.390;-3.266;2022-11-15T13:38:28;98400.94;;;17.88;61.51
23281;BME280;11809;56.390;-3.266;2022-11-15T13:40:57;98396.78;;;17.94;61.25
23281;BME280;11809;56.390;-3.266;2022-11-15T13:49:07;98378.88;;;17.96;61.01
23281;BME280;11809;56.390;-3.266;2022-11-15T13:51:50;98371.03;;;17.94;61.03
23281;BME280;11809;56.390;-3.266;2022-11-15T13:57:27;98360.59;;;18.01;61.34
23281;BME280;11809;56.390;-3.266;2022-11-15T14:00:04;98359.97;;;18.07;61.23
23281;BME280;11809;56.390;-3.266;2022-11-15T14:02:34;98359.59;;;18.10;61.31
23281;BME280;11809;56.390;-3.266;2022-11-15T14:05:15;98354.63;;;18.15;61.04
23281;BME280;11809;56.390;-3.266;2022-11-15T14:10:46;98349.31;;;18.23;60.80
23281;BME280;11809;56.390;-3.266;2022-11-15T14:13:30;98344.19;;;18.30;60.78
23281;BME280;11809;56.390;-3.266;2022-11-15T14:18:49;98332.56;;;18.39;60.50
23281;BME280;11809;56.390;-3.266;2022-11-15T14:21:18;98221.06;;;17.73;60.27
23281;BME280;11809;56.390;-3.266;2022-11-15T14:23:45;98332.69;;;18.45;60.32
23281;BME280;11809;56.390;-3.266;2022-11-15T14:26:27;98300.66;;;18.31;60.15
23281;BME280;11809;56.390;-3.266;2022-11-15T14:28:55;98327.59;;;18.52;60.28
23281;BME280;11809;56.390;-3.266;2022-11-15T14:31:22;98326.56;;;18.53;59.77
23281;BME280;11809;56.390;-3.266;2022-11-15T14:33:50;98332.41;;;18.56;59.79
23281;BME280;11809;56.390;-3.266;2022-11-15T14:36:19;98328.06;;;18.55;59.71
23281;BME280;11809;56.390;-3.266;2022-11-15T14:38:47;98333.38;;;18.55;59.69
23281;BME280;11809;56.390;-3.266;2022-11-15T14:41:22;98296.97;;;18.40;59.75
23281;BME280;11809;56.390;-3.266;2022-11-15T14:43:51;98326.91;;;18.58;59.65
23281;BME280;11809;56.390;-3.266;2022-11-15T14:46:18;98321.09;;;18.62;59.49
23281;BME280;11809;56.390;-3.266;2022-11-15T14:48:46;98288.19;;;18.47;59.18
23281;BME280;11809;56.390;-3.266;2022-11-15T14:51:15;98281.88;;;18.48;59.49
23281;BME280;11809;56.390;-3.266;2022-11-15T14:53:44;98308.44;;;18.64;59.43
23281;BME280;11809;56.390;-3.266;2022-11-15T14:56:12;98314.41;;;18.66;59.37
23281;BME280;11809;56.390;-3.266;2022-11-15T14:58:40;98315.25;;;18.67;59.20
23281;BME280;11809;56.390;-3.266;2022-11-15T15:01:25;98312.78;;;18.65;59.19
23281;BME280;11809;56.390;-3.266;2022-11-15T15:03:53;98310.13;;;18.65;58.91
23281;BME280;11809;56.390;-3.266;2022-11-15T15:06:26;98311.94;;;18.65;59.23
23281;BME280;11809;56.390;-3.266;2022-11-15T15:08:54;98312.28;;;18.62;59.01
23281;BME280;11809;56.390;-3.266;2022-11-15T15:11:23;98307.78;;;18.62;59.24
23281;BME280;11809;56.390;-3.266;2022-11-15T15:13:51;98307.78;;;18.62;59.10
23281;BME280;11809;56.390;-3.266;2022-11-15T15:16:19;98306.13;;;18.61;58.99
23281;BME280;11809;56.390;-3.266;2022-11-15T15:18:46;98282.34;;;18.44;59.08
23281;BME280;11809;56.390;-3.266;2022-11-15T15:21:26;98302.16;;;18.57;58.91
23281;BME280;11809;56.390;-3.266;2022-11-15T15:24:02;98305.16;;;18.54;58.90
23281;BME280;11809;56.390;-3.266;2022-11-15T15:26:30;98299.50;;;18.49;59.11
23281;BME280;11809;56.390;-3.266;2022-11-15T15:29:00;98298.63;;;18.41;59.07
23281;BME280;11809;56.390;-3.266;2022-11-15T15:31:27;98296.81;;;18.41;58.96
23281;BME280;11809;56.390;-3.266;2022-11-15T15:33:54;98295.81;;;18.42;59.07
23281;BME280;11809;56.390;-3.266;2022-11-15T15:36:21;98298.97;;;18.38;59.16
23281;BME280;11809;56.390;-3.266;2022-11-15T15:38:49;98285.84;;;18.36;59.53
23281;BME280;11809;56.390;-3.266;2022-11-15T15:41:16;98250.28;;;18.21;59.40
23281;BME280;11809;56.390;-3.266;2022-11-15T15:43:44;98274.19;;;18.37;59.40
23281;BME280;11809;56.390;-3.266;2022-11-15T15:46:15;98267.91;;;18.38;59.73
23281;BME280;11809;56.390;-3.266;2022-11-15T15:48:43;98268.88;;;18.37;59.53
23281;BME280;11809;56.390;-3.266;2022-11-15T15:51:11;98261.75;;;18.38;59.78
23281;BME280;11809;56.390;-3.266;2022-11-15T15:53:46;98256.25;;;18.39;59.91
23281;BME280;11809;56.390;-3.266;2022-11-15T15:56:16;98257.59;;;18.35;59.89